sensor_id;sensor_type;location;lat;lon;timestamp;P1;durP1;ratioP1;P2;durP2;ratioP2
27839;SDS011;15207;42.182;24.308;2023-04-06T00:00:22;8.60;;;6.00;;
27839;SDS011;15207;42.182;24.308;2023-04-06T00:02:48;10.20;;;5.40;;
27839;SDS011;15207;42.182;24.308;2023-04-06T00:05:14;9.40;;;5.60;;
27839;SDS011;15207;42.182;24.308;2023-04-06T00:07:40;9.40;;;6.00;;
27839;SDS011;15207;42.182;24.308;2023-04-06T00:10:05;8.55;;;5.78;;
27839;SDS011;15207;42.182;24.308;2023-04-06T00:12:31;10.00;;;6.20;;
27839;SDS011;15207;42.182;24.308;2023-04-06T00:14:57;9.80;;;5.68;;
27839;SDS011;15207;42.182;24.308;2023-04-06T00:17:22;9.00;;;5.60;;
27839;SDS011;15207;42.182;24.308;2023-04-06T00:19:48;10.40;;;6.20;;
27839;SDS011;15207;42.182;24.308;2023-04-06T00:22:14;8.60;;;6.00;;
27839;SDS011;15207;42.182;24.308;2023-04-06T00:24:39;9.10;;;6.00;;
27839;SDS011;15207;42.182;24.308;2023-04-06T00:29:30;11.18;;;6.07;;
27839;SDS011;15207;42.182;24.308;2023-04-06T00:31:56;11.33;;;6.40;;
27839;SDS011;15207;42.182;24.308;2023-04-06T00:36:46;9.40;;;6.40;;
27839;SDS011;15207;42.182;24.308;2023-04-06T00:39:12;10.25;;;6.68;;
27839;SDS011;15207;42.182;24.308;2023-04-06T00:41:38;9.30;;;6.35;;
27839;SDS011;15207;42.182;24.308;2023-04-06T00:44:09;9.90;;;6.77;;
27839;SDS011;15207;42.182;24.308;2023-04-06T00:46:34;8.70;;;6.30;;
27839;SDS011;15207;42.182;24.308;2023-04-06T00:49:00;11.85;;;6.80;;
27839;SDS011;15207;42.182;24.308;2023-04-06T00:51:26;8.50;;;5.80;;
27839;SDS011;15207;42.182;24.308;2023-04-06T00:53:52;8.80;;;6.63;;
27839;SDS011;15207;42.182;24.308;2023-04-06T00:56:18;7.75;;;5.70;;
27839;SDS011;15207;42.182;24.308;2023-04-06T00:58:43;9.70;;;6.05;;
27839;SDS011;15207;42.182;24.308;2023-04-06T01:01:09;10.30;;;5.50;;
27839;SDS011;15207;42.182;24.308;2023-04-06T01:03:35;8.45;;;6.00;;
27839;SDS011;15207;42.182;24.308;2023-04-06T01:06:01;10.10;;;6.00;;
27839;SDS011;15207;42.182;24.308;2023-04-06T01:08:26;10.10;;;6.30;;
27839;SDS011;15207;42.182;24.308;2023-04-06T01:10:52;9.90;;;6.43;;
27839;SDS011;15207;42.182;24.308;2023-04-06T01:13:18;9.53;;;6.67;;
27839;SDS011;15207;42.182;24.308;2023-04-06T01:15:43;11.35;;;8.00;;
27839;SDS011;15207;42.182;24.308;2023-04-06T01:18:09;9.60;;;6.90;;
27839;SDS011;15207;42.182;24.308;2023-04-06T01:20:37;14.20;;;7.87;;
27839;SDS011;15207;42.182;24.308;2023-04-06T01:23:03;11.50;;;7.40;;
27839;SDS011;15207;42.182;24.308;2023-04-06T01:25:29;11.50;;;7.80;;
27839;SDS011;15207;42.182;24.308;2023-04-06T01:27:55;13.40;;;7.00;;
27839;SDS011;15207;42.182;24.308;2023-04-06T01:30:20;12.60;;;6.85;;
27839;SDS011;15207;42.182;24.308;2023-04-06T01:32:47;10.30;;;7.30;;
27839;SDS011;15207;42.182;24.308;2023-04-06T01:35:13;11.10;;;7.30;;
27839;SDS011;15207;42.182;24.308;2023-04-06T01:37:38;10.70;;;6.90;;
27839;SDS011;15207;42.182;24.308;2023-04-06T01:40:05;11.73;;;6.97;;
27839;SDS011;15207;42.182;24.308;2023-04-06T01:42:31;10.25;;;6.00;;
27839;SDS011;15207;42.182;24.308;2023-04-06T01:44:57;10.03;;;6.43;;
27839;SDS011;15207;42.182;24.308;2023-04-06T01:47:22;10.80;;;7.00;;
27839;SDS011;15207;42.182;24.308;2023-04-06T01:49:48;10.50;;;6.80;;
27839;SDS011;15207;42.182;24.308;2023-04-06T01:52:13;10.10;;;6.80;;
27839;SDS011;15207;42.182;24.308;2023-04-06T01:54:40;9.90;;;7.00;;
27839;SDS011;15207;42.182;24.308;2023-04-06T01:57:06;11.80;;;6.90;;
27839;SDS011;15207;42.182;24.308;2023-04-06T01:59:31;9.95;;;7.25;;
27839;SDS011;15207;42.182;24.308;2023-04-06T02:01:57;10.95;;;7.20;;
27839;SDS011;15207;42.182;24.308;2023-04-06T02:04:22;12.05;;;7.78;;
27839;SDS011;15207;42.182;24.308;2023-04-06T02:06:48;11.85;;;7.65;;
27839;SDS011;15207;42.182;24.308;2023-04-06T02:09:13;11.53;;;7.87;;
27839;SDS011;15207;42.182;24.308;2023-04-06T02:11:39;14.30;;;7.93;;
27839;SDS011;15207;42.182;24.308;2023-04-06T02:14:05;16.67;;;8.57;;
27839;SDS011;15207;42.182;24.308;2023-04-06T02:18:56;13.75;;;7.85;;
27839;SDS011;15207;42.182;24.308;2023-04-06T02:21:22;12.90;;;8.50;;
27839;SDS011;15207;42.182;24.308;2023-04-06T02:23:47;12.80;;;8.00;;
27839;SDS011;15207;42.182;24.308;2023-04-06T02:26:14;13.87;;;8.43;;
27839;SDS011;15207;42.182;24.308;2023-04-06T02:28:40;14.60;;;8.90;;
27839;SDS011;15207;42.182;24.308;2023-04-06T02:31:07;14.50;;;8.40;;
27839;SDS011;15207;42.182;24.308;2023-04-06T02:33:32;14.67;;;8.07;;
27839;SDS011;15207;42.182;24.308;2023-04-06T02:35:58;12.17;;;8.03;;
27839;SDS011;15207;42.182;24.308;2023-04-06T02:38:23;11.95;;;7.75;;
27839;SDS011;15207;42.182;24.308;2023-04-06T02:40:49;14.03;;;8.40;;
27839;SDS011;15207;42.182;24.308;2023-04-06T02:43:15;13.30;;;8.50;;
27839;SDS011;15207;42.182;24.308;2023-04-06T02:45:42;14.00;;;8.85;;
27839;SDS011;15207;42.182;24.308;2023-04-06T02:48:07;12.45;;;8.05;;
27839;SDS011;15207;42.182;24.308;2023-04-06T02:50:33;13.70;;;8.05;;
27839;SDS011;15207;42.182;24.308;2023-04-06T02:52:58;12.83;;;8.57;;
27839;SDS011;15207;42.182;24.308;2023-04-06T02:55:24;12.23;;;8.82;;
27839;SDS011;15207;42.182;24.308;2023-04-06T02:57:49;13.40;;;8.60;;
27839;SDS011;15207;42.182;24.308;2023-04-06T03:00:15;14.80;;;9.00;;
27839;SDS011;15207;42.182;24.308;2023-04-06T03:02:40;15.50;;;9.00;;
27839;SDS011;15207;42.182;24.308;2023-04-06T03:05:06;13.60;;;9.00;;
27839;SDS011;15207;42.182;24.308;2023-04-06T03:07:32;13.87;;;9.13;;
27839;SDS011;15207;42.182;24.308;2023-04-06T03:09:57;16.20;;;9.90;;
27839;SDS011;15207;42.182;24.308;2023-04-06T03:12:23;17.40;;;10.20;;
27839;SDS011;15207;42.182;24.308;2023-04-06T03:14:48;15.77;;;10.20;;
27839;SDS011;15207;42.182;24.308;2023-04-06T03:17:14;15.95;;;9.90;;
27839;SDS011;15207;42.182;24.308;2023-04-06T03:19:40;18.93;;;10.43;;
27839;SDS011;15207;42.182;24.308;2023-04-06T03:22:05;16.23;;;9.98;;
27839;SDS011;15207;42.182;24.308;2023-04-06T03:24:31;18.95;;;10.50;;
27839;SDS011;15207;42.182;24.308;2023-04-06T03:26:56;16.05;;;10.05;;
27839;SDS011;15207;42.182;24.308;2023-04-06T03:29:22;17.60;;;10.00;;
27839;SDS011;15207;42.182;24.308;2023-04-06T03:31:47;21.60;;;10.80;;
27839;SDS011;15207;42.182;24.308;2023-04-06T03:34:13;22.10;;;11.80;;
27839;SDS011;15207;42.182;24.308;2023-04-06T03:36:38;27.80;;;14.45;;
27839;SDS011;15207;42.182;24.308;2023-04-06T03:39:04;29.55;;;13.90;;
27839;SDS011;15207;42.182;24.308;2023-04-06T03:41:30;26.50;;;12.30;;
27839;SDS011;15207;42.182;24.308;2023-04-06T03:43:55;24.53;;;12.37;;
27839;SDS011;15207;42.182;24.308;2023-04-06T03:46:21;20.95;;;11.30;;
27839;SDS011;15207;42.182;24.308;2023-04-06T03:48:48;17.90;;;10.60;;
27839;SDS011;15207;42.182;24.308;2023-04-06T03:51:14;22.60;;;11.95;;
27839;SDS011;15207;42.182;24.308;2023-04-06T03:53:39;20.40;;;11.70;;
27839;SDS011;15207;42.182;24.308;2023-04-06T03:56:05;22.95;;;11.20;;
27839;SDS011;15207;42.182;24.308;2023-04-06T03:58:31;24.95;;;11.00;;
27839;SDS011;15207;42.182;24.308;2023-04-06T04:00:56;20.75;;;11.50;;
27839;SDS011;15207;42.182;24.308;2023-04-06T04:03:22;17.73;;;9.80;;
27839;SDS011;15207;42.182;24.308;2023-04-06T04:05:52;16.40;;;9.50;;
27839;SDS011;15207;42.182;24.308;2023-04-06T04:08:20;15.48;;;9.55;;
27839;SDS011;15207;42.182;24.308;2023-04-06T04:10:45;15.10;;;9.60;;
27839;SDS011;15207;42.182;24.308;2023-04-06T04:13:11;15.27;;;9.05;;
27839;SDS011;15207;42.182;24.308;2023-04-06T04:18:02;14.00;;;8.35;;
27839;SDS011;15207;42.182;24.308;2023-04-06T04:20:27;13.52;;;8.60;;
27839;SDS011;15207;42.182;24.308;2023-04-06T04:22:53;15.10;;;8.15;;
27839;SDS011;15207;42.182;24.308;2023-04-06T04:25:19;15.55;;;8.55;;
27839;SDS011;15207;42.182;24.308;2023-04-06T04:27:45;13.00;;;8.63;;
27839;SDS011;15207;42.182;24.308;2023-04-06T04:30:10;17.45;;;9.65;;
27839;SDS011;15207;42.182;24.308;2023-04-06T04:32:36;17.90;;;10.60;;
27839;SDS011;15207;42.182;24.308;2023-04-06T04:35:01;15.47;;;9.50;;
27839;SDS011;15207;42.182;24.308;2023-04-06T04:37:27;16.60;;;9.80;;
27839;SDS011;15207;42.182;24.308;2023-04-06T04:39:52;16.20;;;9.00;;
27839;SDS011;15207;42.182;24.308;2023-04-06T04:42:18;12.25;;;8.40;;
27839;SDS011;15207;42.182;24.308;2023-04-06T04:47:09;12.60;;;7.40;;
27839;SDS011;15207;42.182;24.308;2023-04-06T04:49:34;13.05;;;8.10;;
27839;SDS011;15207;42.182;24.308;2023-04-06T04:52:00;14.20;;;8.13;;
27839;SDS011;15207;42.182;24.308;2023-04-06T04:54:25;12.45;;;7.90;;
27839;SDS011;15207;42.182;24.308;2023-04-06T04:56:51;11.45;;;7.15;;
27839;SDS011;15207;42.182;24.308;2023-04-06T04:59:16;14.57;;;8.27;;
27839;SDS011;15207;42.182;24.308;2023-04-06T05:01:42;13.07;;;7.95;;
27839;SDS011;15207;42.182;24.308;2023-04-06T05:04:08;13.30;;;7.80;;
27839;SDS011;15207;42.182;24.308;2023-04-06T05:06:33;13.40;;;8.30;;
27839;SDS011;15207;42.182;24.308;2023-04-06T05:08:59;12.90;;;7.90;;
27839;SDS011;15207;42.182;24.308;2023-04-06T05:11:25;13.40;;;7.20;;
27839;SDS011;15207;42.182;24.308;2023-04-06T05:13:51;11.90;;;6.60;;
27839;SDS011;15207;42.182;24.308;2023-04-06T05:16:16;9.97;;;6.37;;
27839;SDS011;15207;42.182;24.308;2023-04-06T05:18:42;14.80;;;7.05;;
27839;SDS011;15207;42.182;24.308;2023-04-06T05:21:08;10.85;;;6.10;;
27839;SDS011;15207;42.182;24.308;2023-04-06T05:23:34;9.45;;;6.60;;
27839;SDS011;15207;42.182;24.308;2023-04-06T05:26:00;9.95;;;6.20;;
27839;SDS011;15207;42.182;24.308;2023-04-06T05:28:26;9.00;;;5.80;;
27839;SDS011;15207;42.182;24.308;2023-04-06T05:30:52;9.00;;;6.10;;
27839;SDS011;15207;42.182;24.308;2023-04-06T05:33:18;10.10;;;6.20;;
27839;SDS011;15207;42.182;24.308;2023-04-06T05:35:44;8.63;;;5.60;;
27839;SDS011;15207;42.182;24.308;2023-04-06T05:38:09;8.60;;;5.90;;
27839;SDS011;15207;42.182;24.308;2023-04-06T05:40:35;7.10;;;5.03;;
27839;SDS011;15207;42.182;24.308;2023-04-06T05:43:02;7.55;;;5.35;;
27839;SDS011;15207;42.182;24.308;2023-04-06T05:45:29;8.35;;;5.05;;
27839;SDS011;15207;42.182;24.308;2023-04-06T05:47:55;7.40;;;5.50;;
27839;SDS011;15207;42.182;24.308;2023-04-06T05:50:20;8.10;;;5.25;;
27839;SDS011;15207;42.182;24.308;2023-04-06T05:52:47;7.80;;;5.15;;
27839;SDS011;15207;42.182;24.308;2023-04-06T05:55:13;7.60;;;5.40;;
27839;SDS011;15207;42.182;24.308;2023-04-06T05:57:38;6.95;;;5.05;;
27839;SDS011;15207;42.182;24.308;2023-04-06T06:00:05;7.90;;;5.20;;
27839;SDS011;15207;42.182;24.308;2023-04-06T06:02:33;7.75;;;5.45;;
27839;SDS011;15207;42.182;24.308;2023-04-06T06:04:58;6.80;;;4.60;;
27839;SDS011;15207;42.182;24.308;2023-04-06T06:07:24;7.55;;;5.38;;
27839;SDS011;15207;42.182;24.308;2023-04-06T06:09:49;7.70;;;4.88;;
27839;SDS011;15207;42.182;24.308;2023-04-06T06:12:15;6.90;;;4.80;;
27839;SDS011;15207;42.182;24.308;2023-04-06T06:14:41;9.47;;;5.63;;
27839;SDS011;15207;42.182;24.308;2023-04-06T06:17:07;7.60;;;4.65;;
27839;SDS011;15207;42.182;24.308;2023-04-06T06:19:33;7.00;;;4.60;;
27839;SDS011;15207;42.182;24.308;2023-04-06T06:21:58;8.85;;;4.70;;
27839;SDS011;15207;42.182;24.308;2023-04-06T06:24:26;7.30;;;4.90;;
27839;SDS011;15207;42.182;24.308;2023-04-06T06:26:53;9.30;;;5.00;;
27839;SDS011;15207;42.182;24.308;2023-04-06T06:29:18;7.55;;;4.63;;
27839;SDS011;15207;42.182;24.308;2023-04-06T06:31:44;6.60;;;4.60;;
27839;SDS011;15207;42.182;24.308;2023-04-06T06:34:09;7.55;;;4.70;;
27839;SDS011;15207;42.182;24.308;2023-04-06T06:36:35;7.25;;;4.50;;
27839;SDS011;15207;42.182;24.308;2023-04-06T06:39:02;7.13;;;4.85;;
27839;SDS011;15207;42.182;24.308;2023-04-06T06:41:29;6.35;;;4.20;;
27839;SDS011;15207;42.182;24.308;2023-04-06T06:43:54;7.18;;;4.20;;
27839;SDS011;15207;42.182;24.308;2023-04-06T06:46:20;6.90;;;4.50;;
27839;SDS011;15207;42.182;24.308;2023-04-06T06:48:46;9.25;;;4.65;;
27839;SDS011;15207;42.182;24.308;2023-04-06T06:51:12;5.13;;;4.28;;
27839;SDS011;15207;42.182;24.308;2023-04-06T06:53:38;7.15;;;4.90;;
27839;SDS011;15207;42.182;24.308;2023-04-06T06:56:04;6.30;;;4.50;;
27839;SDS011;15207;42.182;24.308;2023-04-06T07:00:56;5.20;;;4.10;;
27839;SDS011;15207;42.182;24.308;2023-04-06T07:03:22;6.75;;;4.00;;
27839;SDS011;15207;42.182;24.308;2023-04-06T07:05:48;5.40;;;3.40;;
27839;SDS011;15207;42.182;24.308;2023-04-06T07:08:21;5.07;;;3.35;;
27839;SDS011;15207;42.182;24.308;2023-04-06T07:10:48;4.20;;;3.42;;
27839;SDS011;15207;42.182;24.308;2023-04-06T07:13:15;5.00;;;3.80;;
27839;SDS011;15207;42.182;24.308;2023-04-06T07:15:47;4.70;;;3.60;;
27839;SDS011;15207;42.182;24.308;2023-04-06T07:18:14;6.60;;;3.40;;
27839;SDS011;15207;42.182;24.308;2023-04-06T07:20:40;4.75;;;3.50;;
27839;SDS011;15207;42.182;24.308;2023-04-06T07:23:06;5.27;;;3.57;;
27839;SDS011;15207;42.182;24.308;2023-04-06T07:25:32;6.15;;;3.65;;
27839;SDS011;15207;42.182;24.308;2023-04-06T07:27:58;6.15;;;4.13;;
27839;SDS011;15207;42.182;24.308;2023-04-06T07:30:24;4.85;;;3.55;;
27839;SDS011;15207;42.182;24.308;2023-04-06T07:32:53;5.20;;;3.70;;
27839;SDS011;15207;42.182;24.308;2023-04-06T07:35:20;5.05;;;3.67;;
27839;SDS011;15207;42.182;24.308;2023-04-06T07:37:47;6.10;;;4.00;;
27839;SDS011;15207;42.182;24.308;2023-04-06T07:40:15;5.90;;;4.20;;
27839;SDS011;15207;42.182;24.308;2023-04-06T07:42:41;7.75;;;3.60;;
27839;SDS011;15207;42.182;24.308;2023-04-06T07:45:07;7.25;;;4.22;;
27839;SDS011;15207;42.182;24.308;2023-04-06T07:47:33;5.60;;;3.37;;
27839;SDS011;15207;42.182;24.308;2023-04-06T07:49:59;6.10;;;4.00;;
27839;SDS011;15207;42.182;24.308;2023-04-06T07:52:25;5.82;;;4.13;;
27839;SDS011;15207;42.182;24.308;2023-04-06T07:54:50;4.90;;;3.40;;
27839;SDS011;15207;42.182;24.308;2023-04-06T07:57:16;5.57;;;3.60;;
27839;SDS011;15207;42.182;24.308;2023-04-06T07:59:43;6.10;;;3.70;;
27839;SDS011;15207;42.182;24.308;2023-04-06T08:02:08;5.20;;;3.70;;
27839;SDS011;15207;42.182;24.308;2023-04-06T08:04:35;4.95;;;3.60;;
27839;SDS011;15207;42.182;24.308;2023-04-06T08:07:01;4.85;;;3.50;;
27839;SDS011;15207;42.182;24.308;2023-04-06T08:09:26;5.40;;;3.60;;
27839;SDS011;15207;42.182;24.308;2023-04-06T08:11:52;8.68;;;4.03;;
27839;SDS011;15207;42.182;24.308;2023-04-06T08:14:18;6.85;;;3.60;;
27839;SDS011;15207;42.182;24.308;2023-04-06T08:16:43;7.10;;;3.70;;
27839;SDS011;15207;42.182;24.308;2023-04-06T08:19:09;5.95;;;3.90;;
27839;SDS011;15207;42.182;24.308;2023-04-06T08:21:36;5.60;;;3.40;;
27839;SDS011;15207;42.182;24.308;2023-04-06T08:24:01;4.80;;;3.60;;
27839;SDS011;15207;42.182;24.308;2023-04-06T08:26:27;5.93;;;3.77;;
27839;SDS011;15207;42.182;24.308;2023-04-06T08:28:54;5.15;;;3.40;;
27839;SDS011;15207;42.182;24.308;2023-04-06T08:31:20;5.30;;;3.45;;
27839;SDS011;15207;42.182;24.308;2023-04-06T08:33:46;5.97;;;3.45;;
27839;SDS011;15207;42.182;24.308;2023-04-06T08:36:12;6.10;;;3.40;;
27839;SDS011;15207;42.182;24.308;2023-04-06T08:38:39;6.25;;;3.75;;
27839;SDS011;15207;42.182;24.308;2023-04-06T08:41:09;5.40;;;3.60;;
27839;SDS011;15207;42.182;24.308;2023-04-06T08:43:37;4.97;;;3.43;;
27839;SDS011;15207;42.182;24.308;2023-04-06T08:46:10;7.60;;;3.30;;
27839;SDS011;15207;42.182;24.308;2023-04-06T08:48:37;5.50;;;3.40;;
27839;SDS011;15207;42.182;24.308;2023-04-06T08:51:04;5.00;;;3.10;;
27839;SDS011;15207;42.182;24.308;2023-04-06T08:53:30;5.03;;;3.50;;
27839;SDS011;15207;42.182;24.308;2023-04-06T08:55:56;6.35;;;3.40;;
27839;SDS011;15207;42.182;24.308;2023-04-06T08:58:23;4.95;;;3.00;;
27839;SDS011;15207;42.182;24.308;2023-04-06T09:00:51;5.50;;;3.45;;
27839;SDS011;15207;42.182;24.308;2023-04-06T09:03:17;8.20;;;3.10;;
27839;SDS011;15207;42.182;24.308;2023-04-06T09:05:45;6.20;;;3.60;;
27839;SDS011;15207;42.182;24.308;2023-04-06T09:08:11;6.75;;;3.13;;
27839;SDS011;15207;42.182;24.308;2023-04-06T09:10:40;3.45;;;2.80;;
27839;SDS011;15207;42.182;24.308;2023-04-06T09:13:07;4.60;;;2.85;;
27839;SDS011;15207;42.182;24.308;2023-04-06T09:15:33;6.45;;;3.10;;
27839;SDS011;15207;42.182;24.308;2023-04-06T09:17:59;5.25;;;3.17;;
27839;SDS011;15207;42.182;24.308;2023-04-06T09:20:26;4.30;;;3.40;;
27839;SDS011;15207;42.182;24.308;2023-04-06T09:22:53;5.85;;;3.38;;
27839;SDS011;15207;42.182;24.308;2023-04-06T09:25:21;6.72;;;3.47;;
27839;SDS011;15207;42.182;24.308;2023-04-06T09:28:01;6.30;;;3.60;;
27839;SDS011;15207;42.182;24.308;2023-04-06T09:30:29;4.90;;;3.10;;
27839;SDS011;15207;42.182;24.308;2023-04-06T09:32:56;4.30;;;3.50;;
27839;SDS011;15207;42.182;24.308;2023-04-06T09:35:23;4.30;;;3.10;;
27839;SDS011;15207;42.182;24.308;2023-04-06T09:37:49;5.80;;;3.70;;
27839;SDS011;15207;42.182;24.308;2023-04-06T09:40:16;5.75;;;3.45;;
27839;SDS011;15207;42.182;24.308;2023-04-06T09:42:47;6.20;;;3.50;;
27839;SDS011;15207;42.182;24.308;2023-04-06T09:45:15;4.45;;;3.38;;
27839;SDS011;15207;42.182;24.308;2023-04-06T09:47:44;5.38;;;3.63;;
27839;SDS011;15207;42.182;24.308;2023-04-06T09:50:14;5.80;;;3.58;;
27839;SDS011;15207;42.182;24.308;2023-04-06T09:52:42;6.85;;;3.67;;
27839;SDS011;15207;42.182;24.308;2023-04-06T09:55:16;5.90;;;3.25;;
27839;SDS011;15207;42.182;24.308;2023-04-06T09:57:50;4.87;;;3.23;;
27839;SDS011;15207;42.182;24.308;2023-04-06T10:00:22;5.30;;;4.10;;
27839;SDS011;15207;42.182;24.308;2023-04-06T10:10:34;4.25;;;3.55;;
27839;SDS011;15207;42.182;24.308;2023-04-06T10:17:52;10.05;;;4.20;;
27839;SDS011;15207;42.182;24.308;2023-04-06T10:20:21;6.85;;;4.30;;
27839;SDS011;15207;42.182;24.308;2023-04-06T10:25:51;6.00;;;4.20;;
27839;SDS011;15207;42.182;24.308;2023-04-06T10:28:24;5.90;;;4.00;;
27839;SDS011;15207;42.182;24.308;2023-04-06T10:30:56;6.63;;;4.03;;
27839;SDS011;15207;42.182;24.308;2023-04-06T10:35:48;4.78;;;3.50;;
27839;SDS011;15207;42.182;24.308;2023-04-06T10:38:14;5.20;;;3.80;;
27839;SDS011;15207;42.182;24.308;2023-04-06T10:40:40;5.25;;;3.80;;
27839;SDS011;15207;42.182;24.308;2023-04-06T10:43:11;5.53;;;3.77;;
27839;SDS011;15207;42.182;24.308;2023-04-06T10:45:38;6.50;;;3.88;;
27839;SDS011;15207;42.182;24.308;2023-04-06T10:48:15;6.45;;;4.15;;
27839;SDS011;15207;42.182;24.308;2023-04-06T10:50:46;7.80;;;4.30;;
27839;SDS011;15207;42.182;24.308;2023-04-06T10:53:23;5.90;;;3.95;;
27839;SDS011;15207;42.182;24.308;2023-04-06T10:55:51;6.78;;;4.03;;
27839;SDS011;15207;42.182;24.308;2023-04-06T10:58:19;8.60;;;4.10;;
27839;SDS011;15207;42.182;24.308;2023-04-06T11:00:45;6.00;;;4.40;;
27839;SDS011;15207;42.182;24.308;2023-04-06T11:03:12;6.00;;;4.05;;
27839;SDS011;15207;42.182;24.308;2023-04-06T11:05:38;5.55;;;4.25;;
27839;SDS011;15207;42.182;24.308;2023-04-06T11:08:08;7.35;;;4.00;;
27839;SDS011;15207;42.182;24.308;2023-04-06T11:10:33;5.38;;;3.92;;
27839;SDS011;15207;42.182;24.308;2023-04-06T11:12:59;6.60;;;4.40;;
27839;SDS011;15207;42.182;24.308;2023-04-06T11:15:24;5.35;;;3.90;;
27839;SDS011;15207;42.182;24.308;2023-04-06T11:17:50;6.25;;;3.90;;
27839;SDS011;15207;42.182;24.308;2023-04-06T11:20:16;6.37;;;3.20;;
27839;SDS011;15207;42.182;24.308;2023-04-06T11:22:50;5.37;;;3.77;;
27839;SDS011;15207;42.182;24.308;2023-04-06T11:25:17;4.80;;;3.40;;
27839;SDS011;15207;42.182;24.308;2023-04-06T11:30:09;6.10;;;3.40;;
27839;SDS011;15207;42.182;24.308;2023-04-06T11:32:43;4.90;;;3.50;;
27839;SDS011;15207;42.182;24.308;2023-04-06T11:35:21;7.50;;;3.20;;
27839;SDS011;15207;42.182;24.308;2023-04-06T11:37:51;5.60;;;3.25;;
27839;SDS011;15207;42.182;24.308;2023-04-06T11:40:22;5.23;;;3.90;;
27839;SDS011;15207;42.182;24.308;2023-04-06T11:42:52;4.55;;;3.72;;
27839;SDS011;15207;42.182;24.308;2023-04-06T11:45:19;5.85;;;4.10;;
27839;SDS011;15207;42.182;24.308;2023-04-06T11:50:20;6.20;;;3.70;;
27839;SDS011;15207;42.182;24.308;2023-04-06T11:55:22;5.05;;;3.15;;
27839;SDS011;15207;42.182;24.308;2023-04-06T11:57:48;5.35;;;3.67;;
27839;SDS011;15207;42.182;24.308;2023-04-06T12:00:15;4.95;;;3.40;;
27839;SDS011;15207;42.182;24.308;2023-04-06T12:02:45;5.60;;;3.90;;
27839;SDS011;15207;42.182;24.308;2023-04-06T12:05:11;5.80;;;3.90;;
27839;SDS011;15207;42.182;24.308;2023-04-06T12:07:36;5.30;;;3.80;;
27839;SDS011;15207;42.182;24.308;2023-04-06T12:10:03;6.22;;;3.72;;
27839;SDS011;15207;42.182;24.308;2023-04-06T12:14:56;5.15;;;3.80;;
27839;SDS011;15207;42.182;24.308;2023-04-06T12:17:22;4.85;;;3.75;;
27839;SDS011;15207;42.182;24.308;2023-04-06T12:19:48;4.90;;;3.80;;
27839;SDS011;15207;42.182;24.308;2023-04-06T12:22:13;6.20;;;3.70;;
27839;SDS011;15207;42.182;24.308;2023-04-06T12:24:39;5.78;;;3.90;;
27839;SDS011;15207;42.182;24.308;2023-04-06T12:27:05;7.30;;;3.90;;
27839;SDS011;15207;42.182;24.308;2023-04-06T12:29:31;5.27;;;3.63;;
27839;SDS011;15207;42.182;24.308;2023-04-06T12:31:57;5.27;;;3.60;;
27839;SDS011;15207;42.182;24.308;2023-04-06T12:34:23;4.80;;;3.70;;
27839;SDS011;15207;42.182;24.308;2023-04-06T12:36:49;4.78;;;3.90;;
27839;SDS011;15207;42.182;24.308;2023-04-06T12:39:16;5.10;;;3.60;;
27839;SDS011;15207;42.182;24.308;2023-04-06T12:41:42;5.60;;;4.10;;
27839;SDS011;15207;42.182;24.308;2023-04-06T12:44:08;6.70;;;3.40;;
27839;SDS011;15207;42.182;24.308;2023-04-06T12:46:34;5.20;;;3.70;;
27839;SDS011;15207;42.182;24.308;2023-04-06T12:49:00;7.55;;;3.80;;
27839;SDS011;15207;42.182;24.308;2023-04-06T12:51:27;7.50;;;3.80;;
27839;SDS011;15207;42.182;24.308;2023-04-06T12:53:53;5.10;;;3.90;;
27839;SDS011;15207;42.182;24.308;2023-04-06T12:56:19;8.23;;;4.10;;
27839;SDS011;15207;42.182;24.308;2023-04-06T12:58:46;4.70;;;4.03;;
27839;SDS011;15207;42.182;24.308;2023-04-06T13:01:12;5.73;;;3.90;;
27839;SDS011;15207;42.182;24.308;2023-04-06T13:03:39;6.00;;;4.05;;
27839;SDS011;15207;42.182;24.308;2023-04-06T13:06:05;4.80;;;3.78;;
27839;SDS011;15207;42.182;24.308;2023-04-06T13:08:33;5.93;;;4.00;;
27839;SDS011;15207;42.182;24.308;2023-04-06T13:11:01;6.65;;;4.10;;
27839;SDS011;15207;42.182;24.308;2023-04-06T13:13:27;5.55;;;3.40;;
27839;SDS011;15207;42.182;24.308;2023-04-06T13:15:54;4.32;;;3.30;;
27839;SDS011;15207;42.182;24.308;2023-04-06T13:18:23;7.50;;;3.28;;
27839;SDS011;15207;42.182;24.308;2023-04-06T13:20:48;5.85;;;3.10;;
27839;SDS011;15207;42.182;24.308;2023-04-06T13:23:14;5.00;;;3.50;;
27839;SDS011;15207;42.182;24.308;2023-04-06T13:25:40;7.70;;;3.80;;
27839;SDS011;15207;42.182;24.308;2023-04-06T13:28:05;9.20;;;3.70;;
27839;SDS011;15207;42.182;24.308;2023-04-06T13:30:31;6.90;;;3.70;;
27839;SDS011;15207;42.182;24.308;2023-04-06T13:32:56;5.70;;;3.40;;
27839;SDS011;15207;42.182;24.308;2023-04-06T13:35:22;4.60;;;3.50;;
27839;SDS011;15207;42.182;24.308;2023-04-06T13:37:48;3.60;;;2.90;;
27839;SDS011;15207;42.182;24.308;2023-04-06T13:40:14;4.10;;;3.10;;
27839;SDS011;15207;42.182;24.308;2023-04-06T13:42:39;3.80;;;3.20;;
27839;SDS011;15207;42.182;24.308;2023-04-06T13:45:06;5.80;;;3.65;;
27839;SDS011;15207;42.182;24.308;2023-04-06T13:47:33;5.25;;;3.50;;
27839;SDS011;15207;42.182;24.308;2023-04-06T13:49:58;4.65;;;3.38;;
27839;SDS011;15207;42.182;24.308;2023-04-06T13:52:24;6.20;;;3.60;;
27839;SDS011;15207;42.182;24.308;2023-04-06T13:54:49;6.93;;;3.80;;
27839;SDS011;15207;42.182;24.308;2023-04-06T13:57:15;6.55;;;3.80;;
27839;SDS011;15207;42.182;24.308;2023-04-06T13:59:41;4.40;;;3.40;;
27839;SDS011;15207;42.182;24.308;2023-04-06T14:02:08;7.68;;;3.67;;
27839;SDS011;15207;42.182;24.308;2023-04-06T14:04:36;5.80;;;3.50;;
27839;SDS011;15207;42.182;24.308;2023-04-06T14:07:02;5.65;;;3.60;;
27839;SDS011;15207;42.182;24.308;2023-04-06T14:09:28;9.43;;;5.03;;
27839;SDS011;15207;42.182;24.308;2023-04-06T14:11:55;4.25;;;2.90;;
27839;SDS011;15207;42.182;24.308;2023-04-06T14:14:22;5.30;;;3.70;;
27839;SDS011;15207;42.182;24.308;2023-04-06T14:16:48;5.15;;;3.70;;
27839;SDS011;15207;42.182;24.308;2023-04-06T14:19:14;4.72;;;3.58;;
27839;SDS011;15207;42.182;24.308;2023-04-06T14:21:42;6.28;;;3.85;;
27839;SDS011;15207;42.182;24.308;2023-04-06T14:24:09;5.50;;;3.20;;
27839;SDS011;15207;42.182;24.308;2023-04-06T14:29:02;5.00;;;3.55;;
27839;SDS011;15207;42.182;24.308;2023-04-06T14:31:31;5.18;;;3.53;;
27839;SDS011;15207;42.182;24.308;2023-04-06T14:33:57;5.40;;;4.00;;
27839;SDS011;15207;42.182;24.308;2023-04-06T14:36:23;5.10;;;3.53;;
27839;SDS011;15207;42.182;24.308;2023-04-06T14:41:17;4.50;;;3.80;;
27839;SDS011;15207;42.182;24.308;2023-04-06T14:46:10;6.90;;;4.50;;
27839;SDS011;15207;42.182;24.308;2023-04-06T14:48:36;6.15;;;4.50;;
27839;SDS011;15207;42.182;24.308;2023-04-06T14:51:02;6.50;;;4.20;;
27839;SDS011;15207;42.182;24.308;2023-04-06T14:53:27;4.35;;;3.80;;
27839;SDS011;15207;42.182;24.308;2023-04-06T14:55:53;4.15;;;3.60;;
27839;SDS011;15207;42.182;24.308;2023-04-06T14:58:20;5.00;;;3.85;;
27839;SDS011;15207;42.182;24.308;2023-04-06T15:00:47;7.05;;;4.15;;
27839;SDS011;15207;42.182;24.308;2023-04-06T15:03:13;6.15;;;4.10;;
27839;SDS011;15207;42.182;24.308;2023-04-06T15:05:38;6.25;;;4.72;;
27839;SDS011;15207;42.182;24.308;2023-04-06T15:08:04;4.63;;;4.00;;
27839;SDS011;15207;42.182;24.308;2023-04-06T15:10:33;7.40;;;4.50;;
27839;SDS011;15207;42.182;24.308;2023-04-06T15:12:59;6.70;;;4.30;;
27839;SDS011;15207;42.182;24.308;2023-04-06T15:15:25;7.35;;;4.68;;